sensor_id;sensor_type;location;lat;lon;timestamp;temperature;humidity
4356;DHT22;64374;51.482;7.408;2022-12-04T00:01:34;7.10;99.90
4356;DHT22;64374;51.482;7.408;2022-12-04T00:04:04;7.00;99.90
4356;DHT22;64374;51.482;7.408;2022-12-04T00:06:33;7.10;99.90
4356;DHT22;64374;51.482;7.408;2022-12-04T00:09:02;6.90;99.90
4356;DHT22;64374;51.482;7.408;2022-12-04T00:11:32;7.30;99.90
4356;DHT22;64374;51.482;7.408;2022-12-04T00:14:01;6.90;99.90
4356;DHT22;64374;51.482;7.408;2022-12-04T00:16:33;7.10;99.90
4356;DHT22;64374;51.482;7.408;2022-12-04T00:19:01;7.20;99.90
4356;DHT22;64374;51.482;7.408;2022-12-04T00:21:35;7.10;99.90
4356;DHT22;64374;51.482;7.408;2022-12-04T00:24:04;7.10;99.90
4356;DHT22;64374;51.482;7.408;2022-12-04T00:26:32;7.00;99.90
4356;DHT22;64374;51.482;7.408;2022-12-04T00:29:01;7.10;99.90
4356;DHT22;64374;51.482;7.408;2022-12-04T00:31:37;7.00;99.90
4356;DHT22;64374;51.482;7.408;2022-12-04T00:34:08;7.10;99.90
4356;DHT22;64374;51.482;7.408;2022-12-04T00:36:41;7.20;99.90
4356;DHT22;64374;51.482;7.408;2022-12-04T00:39:11;7.20;99.90
4356;DHT22;64374;51.482;7.408;2022-12-04T00:41:42;7.20;99.90
4356;DHT22;64374;51.482;7.408;2022-12-04T00:44:13;7.10;99.90
4356;DHT22;64374;51.482;7.408;2022-12-04T00:46:41;7.00;99.90
4356;DHT22;64374;51.482;7.408;2022-12-04T00:49:10;7.20;99.90
4356;DHT22;64374;51.482;7.408;2022-12-04T00:51:42;7.20;99.90
4356;DHT22;64374;51.482;7.408;2022-12-04T00:54:10;7.00;99.90
4356;DHT22;64374;51.482;7.408;2022-12-04T00:56:43;7.10;99.90
4356;DHT22;64374;51.482;7.408;2022-12-04T00:59:12;7.10;99.90
4356;DHT22;64374;51.482;7.408;2022-12-04T01:01:40;7.20;99.90
4356;DHT22;64374;51.482;7.408;2022-12-04T01:04:08;7.10;99.90
4356;DHT22;64374;51.482;7.408;2022-12-04T01:06:36;7.00;99.90
4356;DHT22;64374;51.482;7.408;2022-12-04T01:09:09;7.10;99.90
4356;DHT22;64374;51.482;7.408;2022-12-04T01:11:38;7.00;99.90
4356;DHT22;64374;51.482;7.408;2022-12-04T01:14:06;7.20;99.90
4356;DHT22;64374;51.482;7.408;2022-12-04T01:16:43;7.40;99.90
4356;DHT22;64374;51.482;7.408;2022-12-04T01:19:12;7.20;99.90
4356;DHT22;64374;51.482;7.408;2022-12-04T01:21:43;7.10;99.90
4356;DHT22;64374;51.482;7.408;2022-12-04T01:24:13;7.10;99.90
4356;DHT22;64374;51.482;7.408;2022-12-04T01:26:42;7.10;99.90
4356;DHT22;64374;51.482;7.408;2022-12-04T01:29:10;7.10;99.90
4356;DHT22;64374;51.482;7.408;2022-12-04T01:31:38;7.20;99.90
4356;DHT22;64374;51.482;7.408;2022-12-04T01:34:06;7.20;99.90
4356;DHT22;64374;51.482;7.408;2022-12-04T01:36:37;7.20;99.90
4356;DHT22;64374;51.482;7.408;2022-12-04T01:39:08;7.00;99.90
4356;DHT22;64374;51.482;7.408;2022-12-04T01:41:38;6.90;99.90
4356;DHT22;64374;51.482;7.408;2022-12-04T01:44:09;6.80;99.90
4356;DHT22;64374;51.482;7.408;2022-12-04T01:46:38;6.90;99.90
4356;DHT22;64374;51.482;7.408;2022-12-04T01:49:11;7.10;99.90
4356;DHT22;64374;51.482;7.408;2022-12-04T01:51:50;7.10;99.90
4356;DHT22;64374;51.482;7.408;2022-12-04T01:54:23;7.10;99.90
4356;DHT22;64374;51.482;7.408;2022-12-04T01:57:02;7.00;99.90
4356;DHT22;64374;51.482;7.408;2022-12-04T01:59:37;6.90;99.90
4356;DHT22;64374;51.482;7.408;2022-12-04T02:02:09;7.00;99.90
4356;DHT22;64374;51.482;7.408;2022-12-04T02:04:39;7.00;99.90
4356;DHT22;64374;51.482;7.408;2022-12-04T02:07:08;7.00;99.90
4356;DHT22;64374;51.482;7.408;2022-12-04T02:09:37;7.10;99.90
4356;DHT22;64374;51.482;7.408;2022-12-04T02:12:13;7.10;99.90
4356;DHT22;64374;51.482;7.408;2022-12-04T02:15:02;7.00;99.90
4356;DHT22;64374;51.482;7.408;2022-12-04T02:17:35;6.90;99.90
4356;DHT22;64374;51.482;7.408;2022-12-04T02:20:21;7.00;99.90
4356;DHT22;64374;51.482;7.408;2022-12-04T02:26:04;7.00;99.90
4356;DHT22;64374;51.482;7.408;2022-12-04T02:28:53;6.90;99.90
4356;DHT22;64374;51.482;7.408;2022-12-04T02:31:31;6.90;99.90
4356;DHT22;64374;51.482;7.408;2022-12-04T02:34:04;7.00;99.90
4356;DHT22;64374;51.482;7.408;2022-12-04T02:36:38;7.10;99.90
4356;DHT22;64374;51.482;7.408;2022-12-04T02:39:18;7.00;99.90
4356;DHT22;64374;51.482;7.408;2022-12-04T02:41:55;6.90;99.90
4356;DHT22;64374;51.482;7.408;2022-12-04T02:44:28;6.90;99.90
4356;DHT22;64374;51.482;7.408;2022-12-04T02:46:59;6.70;99.90
4356;DHT22;64374;51.482;7.408;2022-12-04T02:49:35;6.70;99.90
4356;DHT22;64374;51.482;7.408;2022-12-04T02:52:16;6.70;99.90
4356;DHT22;64374;51.482;7.408;2022-12-04T02:54:48;6.80;99.90
4356;DHT22;64374;51.482;7.408;2022-12-04T02:57:23;6.80;99.90
4356;DHT22;64374;51.482;7.408;2022-12-04T02:59:55;6.80;99.90
4356;DHT22;64374;51.482;7.408;2022-12-04T03:02:30;6.80;99.90
4356;DHT22;64374;51.482;7.408;2022-12-04T03:05:06;6.90;99.90
4356;DHT22;64374;51.482;7.408;2022-12-04T03:07:44;6.80;99.90
4356;DHT22;64374;51.482;7.408;2022-12-04T03:10:17;6.90;99.90
4356;DHT22;64374;51.482;7.408;2022-12-04T03:12:51;6.90;99.90
4356;DHT22;64374;51.482;7.408;2022-12-04T03:15:25;6.80;99.90
4356;DHT22;64374;51.482;7.408;2022-12-04T03:17:57;6.90;99.90
4356;DHT22;64374;51.482;7.408;2022-12-04T03:20:32;6.90;99.90
4356;DHT22;64374;51.482;7.408;2022-12-04T03:23:06;7.10;99.90
4356;DHT22;64374;51.482;7.408;2022-12-04T03:25:42;6.90;99.90
4356;DHT22;64374;51.482;7.408;2022-12-04T03:28:18;7.00;99.90
4356;DHT22;64374;51.482;7.408;2022-12-04T03:30:55;6.90;99.90
4356;DHT22;64374;51.482;7.408;2022-12-04T03:33:30;6.90;99.90
4356;DHT22;64374;51.482;7.408;2022-12-04T03:36:08;7.00;99.90
4356;DHT22;64374;51.482;7.408;2022-12-04T03:38:45;6.80;99.90
4356;DHT22;64374;51.482;7.408;2022-12-04T03:41:20;6.80;99.90
4356;DHT22;64374;51.482;7.408;2022-12-04T03:43:57;6.90;99.90
4356;DHT22;64374;51.482;7.408;2022-12-04T03:46:31;6.80;99.90
4356;DHT22;64374;51.482;7.408;2022-12-04T03:49:10;6.80;99.90
4356;DHT22;64374;51.482;7.408;2022-12-04T03:51:42;6.90;99.90
4356;DHT22;64374;51.482;7.408;2022-12-04T03:54:15;6.90;99.90
4356;DHT22;64374;51.482;7.408;2022-12-04T03:56:49;6.70;99.90
4356;DHT22;64374;51.482;7.408;2022-12-04T03:59:22;6.90;99.90
4356;DHT22;64374;51.482;7.408;2022-12-04T04:01:53;6.90;99.90
4356;DHT22;64374;51.482;7.408;2022-12-04T04:04:27;6.90;99.90
4356;DHT22;64374;51.482;7.408;2022-12-04T04:07:02;6.70;99.90
4356;DHT22;64374;51.482;7.408;2022-12-04T04:09:36;6.80;99.90
4356;DHT22;64374;51.482;7.408;2022-12-04T04:12:07;6.80;99.90
4356;DHT22;64374;51.482;7.408;2022-12-04T04:14:40;6.60;99.90
4356;DHT22;64374;51.482;7.408;2022-12-04T04:17:37;6.40;99.90
4356;DHT22;64374;51.482;7.408;2022-12-04T04:20:29;6.60;99.90
4356;DHT22;64374;51.482;7.408;2022-12-04T04:23:20;6.60;99.90
4356;DHT22;64374;51.482;7.408;2022-12-04T04:26:08;6.70;99.90
4356;DHT22;64374;51.482;7.408;2022-12-04T04:28:41;6.80;99.90
4356;DHT22;64374;51.482;7.408;2022-12-04T04:31:16;6.70;99.90
4356;DHT22;64374;51.482;7.408;2022-12-04T04:33:55;6.70;99.90
4356;DHT22;64374;51.482;7.408;2022-12-04T04:36:33;6.70;99.90
4356;DHT22;64374;51.482;7.408;2022-12-04T04:39:09;6.80;99.90
4356;DHT22;64374;51.482;7.408;2022-12-04T04:41:43;6.80;99.90
4356;DHT22;64374;51.482;7.408;2022-12-04T04:44:19;6.90;99.90
4356;DHT22;64374;51.482;7.408;2022-12-04T04:46:52;6.90;99.90
4356;DHT22;64374;51.482;7.408;2022-12-04T04:49:27;6.80;99.90
4356;DHT22;64374;51.482;7.408;2022-12-04T04:51:58;6.80;99.90
4356;DHT22;64374;51.482;7.408;2022-12-04T04:54:28;6.90;99.90
4356;DHT22;64374;51.482;7.408;2022-12-04T04:56:56;6.80;99.90
4356;DHT22;64374;51.482;7.408;2022-12-04T04:59:25;6.90;99.90
4356;DHT22;64374;51.482;7.408;2022-12-04T05:01:53;6.90;99.90
4356;DHT22;64374;51.482;7.408;2022-12-04T05:04:21;6.80;99.90
4356;DHT22;64374;51.482;7.408;2022-12-04T05:06:51;6.90;99.90
4356;DHT22;64374;51.482;7.408;2022-12-04T05:09:20;6.90;99.90
4356;DHT22;64374;51.482;7.408;2022-12-04T05:11:48;6.90;99.90
4356;DHT22;64374;51.482;7.408;2022-12-04T05:14:17;7.00;99.90
4356;DHT22;64374;51.482;7.408;2022-12-04T05:16:50;7.00;99.90
4356;DHT22;64374;51.482;7.408;2022-12-04T05:19:18;7.20;99.90
4356;DHT22;64374;51.482;7.408;2022-12-04T05:22:05;7.00;99.90
4356;DHT22;64374;51.482;7.408;2022-12-04T05:24:36;7.10;99.90
4356;DHT22;64374;51.482;7.408;2022-12-04T05:27:04;6.90;99.90
4356;DHT22;64374;51.482;7.408;2022-12-04T05:29:32;6.90;99.90
4356;DHT22;64374;51.482;7.408;2022-12-04T05:32:02;7.00;99.90
4356;DHT22;64374;51.482;7.408;2022-12-04T05:34:30;6.80;99.90
4356;DHT22;64374;51.482;7.408;2022-12-04T05:37:01;6.50;99.90
4356;DHT22;64374;51.482;7.408;2022-12-04T05:39:34;6.60;99.90
4356;DHT22;64374;51.482;7.408;2022-12-04T05:42:03;6.70;99.90
4356;DHT22;64374;51.482;7.408;2022-12-04T05:44:33;6.90;99.90
4356;DHT22;64374;51.482;7.408;2022-12-04T05:47:01;6.80;99.90
4356;DHT22;64374;51.482;7.408;2022-12-04T05:49:30;6.90;99.90
4356;DHT22;64374;51.482;7.408;2022-12-04T05:51:59;6.90;99.90
4356;DHT22;64374;51.482;7.408;2022-12-04T05:54:28;6.80;99.90
4356;DHT22;64374;51.482;7.408;2022-12-04T05:56:57;6.60;99.90
4356;DHT22;64374;51.482;7.408;2022-12-04T05:59:26;6.50;99.90
4356;DHT22;64374;51.482;7.408;2022-12-04T06:01:56;6.50;99.90
4356;DHT22;64374;51.482;7.408;2022-12-04T06:04:25;6.50;99.90
4356;DHT22;64374;51.482;7.408;2022-12-04T06:06:56;6.50;99.90
4356;DHT22;64374;51.482;7.408;2022-12-04T06:09:24;6.50;99.90
4356;DHT22;64374;51.482;7.408;2022-12-04T06:11:58;6.60;99.90
4356;DHT22;64374;51.482;7.408;2022-12-04T06:14:26;6.30;99.90
4356;DHT22;64374;51.482;7.408;2022-12-04T06:16:54;6.30;99.90
4356;DHT22;64374;51.482;7.408;2022-12-04T06:19:22;6.40;99.90
4356;DHT22;64374;51.482;7.408;2022-12-04T06:21:53;6.50;99.90
4356;DHT22;64374;51.482;7.408;2022-12-04T06:24:22;6.60;99.90
4356;DHT22;64374;51.482;7.408;2022-12-04T06:26:55;6.70;99.90
4356;DHT22;64374;51.482;7.408;2022-12-04T06:29:46;6.60;99.90
4356;DHT22;64374;51.482;7.408;2022-12-04T06:32:15;6.60;99.90
4356;DHT22;64374;51.482;7.408;2022-12-04T06:34:54;6.70;99.90
4356;DHT22;64374;51.482;7.408;2022-12-04T06:37:25;6.80;99.90
4356;DHT22;64374;51.482;7.408;2022-12-04T06:39:53;6.70;99.90
4356;DHT22;64374;51.482;7.408;2022-12-04T06:42:24;6.60;99.90
4356;DHT22;64374;51.482;7.408;2022-12-04T06:45:02;6.40;99.90
4356;DHT22;64374;51.482;7.408;2022-12-04T06:47:31;6.50;99.90
4356;DHT22;64374;51.482;7.408;2022-12-04T06:50:04;6.60;99.90
4356;DHT22;64374;51.482;7.408;2022-12-04T06:52:32;6.60;99.90
4356;DHT22;64374;51.482;7.408;2022-12-04T06:55:04;6.70;99.90
4356;DHT22;64374;51.482;7.408;2022-12-04T06:57:33;6.80;99.90
4356;DHT22;64374;51.482;7.408;2022-12-04T07:00:06;6.90;99.90
4356;DHT22;64374;51.482;7.408;2022-12-04T07:02:35;6.90;99.90
4356;DHT22;64374;51.482;7.408;2022-12-04T07:05:04;6.80;99.90
4356;DHT22;64374;51.482;7.408;2022-12-04T07:07:33;6.70;99.90
4356;DHT22;64374;51.482;7.408;2022-12-04T07:10:01;6.80;99.90
4356;DHT22;64374;51.482;7.408;2022-12-04T07:12:31;6.80;99.90
4356;DHT22;64374;51.482;7.408;2022-12-04T07:15:00;6.90;99.90
4356;DHT22;64374;51.482;7.408;2022-12-04T07:17:30;6.70;99.90
4356;DHT22;64374;51.482;7.408;2022-12-04T07:19:58;6.60;99.90
4356;DHT22;64374;51.482;7.408;2022-12-04T07:22:29;6.30;99.90
4356;DHT22;64374;51.482;7.408;2022-12-04T07:24:57;6.30;99.90
4356;DHT22;64374;51.482;7.408;2022-12-04T07:27:28;6.40;99.90
4356;DHT22;64374;51.482;7.408;2022-12-04T07:29:56;6.50;99.90
4356;DHT22;64374;51.482;7.408;2022-12-04T07:32:25;6.60;99.90
4356;DHT22;64374;51.482;7.408;2022-12-04T07:35:05;6.70;99.90
4356;DHT22;64374;51.482;7.408;2022-12-04T07:37:36;6.70;99.90
4356;DHT22;64374;51.482;7.408;2022-12-04T07:40:05;6.50;99.90
4356;DHT22;64374;51.482;7.408;2022-12-04T07:42:34;6.40;99.90
4356;DHT22;64374;51.482;7.408;2022-12-04T07:45:02;6.40;99.90
4356;DHT22;64374;51.482;7.408;2022-12-04T07:47:34;6.30;99.90
4356;DHT22;64374;51.482;7.408;2022-12-04T07:50:05;6.40;99.90
4356;DHT22;64374;51.482;7.408;2022-12-04T07:52:35;6.60;99.90
4356;DHT22;64374;51.482;7.408;2022-12-04T07:55:07;6.60;99.90
4356;DHT22;64374;51.482;7.408;2022-12-04T07:57:35;6.50;99.90
4356;DHT22;64374;51.482;7.408;2022-12-04T08:00:18;6.50;99.90
4356;DHT22;64374;51.482;7.408;2022-12-04T08:02:49;6.40;99.90
4356;DHT22;64374;51.482;7.408;2022-12-04T08:05:18;6.60;99.90
4356;DHT22;64374;51.482;7.408;2022-12-04T08:07:47;6.60;99.90
4356;DHT22;64374;51.482;7.408;2022-12-04T08:10:15;6.60;99.90
4356;DHT22;64374;51.482;7.408;2022-12-04T08:12:44;6.70;99.90
4356;DHT22;64374;51.482;7.408;2022-12-04T08:15:12;6.70;99.90
4356;DHT22;64374;51.482;7.408;2022-12-04T08:17:40;6.80;99.90
4356;DHT22;64374;51.482;7.408;2022-12-04T08:20:11;6.80;99.90
4356;DHT22;64374;51.482;7.408;2022-12-04T08:22:41;6.70;99.90
4356;DHT22;64374;51.482;7.408;2022-12-04T08:25:09;6.70;99.90
4356;DHT22;64374;51.482;7.408;2022-12-04T08:27:37;6.70;99.90
4356;DHT22;64374;51.482;7.408;2022-12-04T08:30:13;6.60;99.90
4356;DHT22;64374;51.482;7.408;2022-12-04T08:32:41;6.80;99.90
4356;DHT22;64374;51.482;7.408;2022-12-04T08:35:10;6.70;99.90
4356;DHT22;64374;51.482;7.408;2022-12-04T08:37:42;6.70;99.90
4356;DHT22;64374;51.482;7.408;2022-12-04T08:40:14;6.80;99.90
4356;DHT22;64374;51.482;7.408;2022-12-04T08:42:43;6.90;99.90
4356;DHT22;64374;51.482;7.408;2022-12-04T08:45:11;6.60;99.90
4356;DHT22;64374;51.482;7.408;2022-12-04T08:47:39;6.60;99.90
4356;DHT22;64374;51.482;7.408;2022-12-04T08:50:18;6.70;99.90
4356;DHT22;64374;51.482;7.408;2022-12-04T08:52:48;6.70;99.90
4356;DHT22;64374;51.482;7.408;2022-12-04T08:55:16;6.80;99.90
4356;DHT22;64374;51.482;7.408;2022-12-04T08:57:49;6.80;99.90
4356;DHT22;64374;51.482;7.408;2022-12-04T09:00:19;6.80;99.90
4356;DHT22;64374;51.482;7.408;2022-12-04T09:02:48;6.80;99.90
4356;DHT22;64374;51.482;7.408;2022-12-04T09:05:16;6.70;99.90
4356;DHT22;64374;51.482;7.408;2022-12-04T09:07:45;6.60;99.90
4356;DHT22;64374;51.482;7.408;2022-12-04T09:10:15;6.60;99.90
4356;DHT22;64374;51.482;7.408;2022-12-04T09:12:43;6.70;99.90
4356;DHT22;64374;51.482;7.408;2022-12-04T09:15:11;6.70;99.90
4356;DHT22;64374;51.482;7.408;2022-12-04T09:17:41;6.80;99.90
4356;DHT22;64374;51.482;7.408;2022-12-04T09:20:10;6.60;99.90
4356;DHT22;64374;51.482;7.408;2022-12-04T09:22:41;6.50;99.90
4356;DHT22;64374;51.482;7.408;2022-12-04T09:25:31;6.60;99.90
4356;DHT22;64374;51.482;7.408;2022-12-04T09:28:02;6.70;99.90
4356;DHT22;64374;51.482;7.408;2022-12-04T09:30:30;6.70;99.90
4356;DHT22;64374;51.482;7.408;2022-12-04T09:32:59;6.50;99.90
4356;DHT22;64374;51.482;7.408;2022-12-04T09:35:27;6.40;99.90
4356;DHT22;64374;51.482;7.408;2022-12-04T09:37:56;6.40;99.90
4356;DHT22;64374;51.482;7.408;2022-12-04T09:40:29;6.60;99.90
4356;DHT22;64374;51.482;7.408;2022-12-04T09:43:13;6.70;99.90
4356;DHT22;64374;51.482;7.408;2022-12-04T09:45:51;6.90;99.90
4356;DHT22;64374;51.482;7.408;2022-12-04T09:48:27;6.90;99.90
4356;DHT22;64374;51.482;7.408;2022-12-04T09:50:59;6.80;99.90
4356;DHT22;64374;51.482;7.408;2022-12-04T09:53:37;6.70;99.90
4356;DHT22;64374;51.482;7.408;2022-12-04T09:56:12;6.70;99.90
4356;DHT22;64374;51.482;7.408;2022-12-04T09:58:48;6.50;99.90
4356;DHT22;64374;51.482;7.408;2022-12-04T10:01:26;6.60;99.90
4356;DHT22;64374;51.482;7.408;2022-12-04T10:03:56;6.40;99.90
4356;DHT22;64374;51.482;7.408;2022-12-04T10:06:36;6.40;99.90
4356;DHT22;64374;51.482;7.408;2022-12-04T10:09:09;6.50;99.90
4356;DHT22;64374;51.482;7.408;2022-12-04T10:11:47;6.40;99.90
4356;DHT22;64374;51.482;7.408;2022-12-04T10:14:46;6.60;99.90
4356;DHT22;64374;51.482;7.408;2022-12-04T10:17:25;6.70;99.90
4356;DHT22;64374;51.482;7.408;2022-12-04T10:20:06;6.80;99.90
4356;DHT22;64374;51.482;7.408;2022-12-04T10:22:48;6.80;99.90
4356;DHT22;64374;51.482;7.408;2022-12-04T10:25:21;6.90;99.90
4356;DHT22;64374;51.482;7.408;2022-12-04T10:27:54;6.90;99.90
4356;DHT22;64374;51.482;7.408;2022-12-04T10:30:31;6.90;99.90
4356;DHT22;64374;51.482;7.408;2022-12-04T10:33:10;6.90;99.90
4356;DHT22;64374;51.482;7.408;2022-12-04T10:35:45;7.00;99.90
4356;DHT22;64374;51.482;7.408;2022-12-04T10:38:25;7.10;99.90
4356;DHT22;64374;51.482;7.408;2022-12-04T10:40:59;7.10;99.90
4356;DHT22;64374;51.482;7.408;2022-12-04T10:43:35;7.10;99.90
4356;DHT22;64374;51.482;7.408;2022-12-04T10:46:13;7.30;99.90
4356;DHT22;64374;51.482;7.408;2022-12-04T10:48:46;7.40;99.90
4356;DHT22;64374;51.482;7.408;2022-12-04T10:51:18;7.40;99.90
4356;DHT22;64374;51.482;7.408;2022-12-04T10:53:54;7.40;99.90
4356;DHT22;64374;51.482;7.408;2022-12-04T10:56:25;7.40;99.90
4356;DHT22;64374;51.482;7.408;2022-12-04T10:58:58;7.50;99.90
4356;DHT22;64374;51.482;7.408;2022-12-04T11:01:32;7.40;99.90
4356;DHT22;64374;51.482;7.408;2022-12-04T11:04:07;7.40;99.90
4356;DHT22;64374;51.482;7.408;2022-12-04T11:06:37;7.30;99.90
4356;DHT22;64374;51.482;7.408;2022-12-04T11:09:06;7.30;99.90
4356;DHT22;64374;51.482;7.408;2022-12-04T11:11:41;7.50;99.90
4356;DHT22;64374;51.482;7.408;2022-12-04T11:14:13;7.50;99.90
4356;DHT22;64374;51.482;7.408;2022-12-04T11:16:46;7.50;99.90
4356;DHT22;64374;51.482;7.408;2022-12-04T11:19:21;7.40;99.90
4356;DHT22;64374;51.482;7.408;2022-12-04T11:21:51;7.50;99.90
4356;DHT22;64374;51.482;7.408;2022-12-04T11:24:23;7.30;99.90
4356;DHT22;64374;51.482;7.408;2022-12-04T11:26:52;7.50;99.90
4356;DHT22;64374;51.482;7.408;2022-12-04T11:29:29;7.50;99.90
4356;DHT22;64374;51.482;7.408;2022-12-04T11:32:01;7.70;99.90
4356;DHT22;64374;51.482;7.408;2022-12-04T11:34:37;7.60;99.90
4356;DHT22;64374;51.482;7.408;2022-12-04T11:37:17;7.60;99.90
4356;DHT22;64374;51.482;7.408;2022-12-04T11:39:47;7.60;99.90
4356;DHT22;64374;51.482;7.408;2022-12-04T11:42:16;7.60;99.90
4356;DHT22;64374;51.482;7.408;2022-12-04T11:44:52;7.80;99.90
4356;DHT22;64374;51.482;7.408;2022-12-04T11:47:27;7.80;99.90
4356;DHT22;64374;51.482;7.408;2022-12-04T11:50:02;7.80;99.90
4356;DHT22;64374;51.482;7.408;2022-12-04T11:52:47;7.80;99.90
4356;DHT22;64374;51.482;7.408;2022-12-04T11:55:24;7.80;99.90
4356;DHT22;64374;51.482;7.408;2022-12-04T11:58:21;7.80;99.90
4356;DHT22;64374;51.482;7.408;2022-12-04T12:00:58;7.60;99.90
4356;DHT22;64374;51.482;7.408;2022-12-04T12:03:39;7.70;99.90
4356;DHT22;64374;51.482;7.408;2022-12-04T12:06:22;7.70;99.90
4356;DHT22;64374;51.482;7.408;2022-12-04T12:09:17;7.80;99.90
4356;DHT22;64374;51.482;7.408;2022-12-04T12:11:52;7.80;99.90
4356;DHT22;64374;51.482;7.408;2022-12-04T12:14:29;7.80;99.90
4356;DHT22;64374;51.482;7.408;2022-12-04T12:17:10;7.60;99.90
4356;DHT22;64374;51.482;7.408;2022-12-04T12:20:10;7.40;99.90
4356;DHT22;64374;51.482;7.408;2022-12-04T12:23:15;7.50;99.90
4356;DHT22;64374;51.482;7.408;2022-12-04T12:25:52;7.50;99.90
4356;DHT22;64374;51.482;7.408;2022-12-04T12:28:34;7.10;99.90
4356;DHT22;64374;51.482;7.408;2022-12-04T12:31:25;7.10;99.90
4356;DHT22;64374;51.482;7.408;2022-12-04T12:34:00;7.20;99.90
4356;DHT22;64374;51.482;7.408;2022-12-04T12:36:39;7.30;99.90
4356;DHT22;64374;51.482;7.408;2022-12-04T12:39:31;7.30;99.90
4356;DHT22;64374;51.482;7.408;2022-12-04T12:42:01;7.10;99.90
4356;DHT22;64374;51.482;7.408;2022-12-04T12:44:35;7.20;99.90
4356;DHT22;64374;51.482;7.408;2022-12-04T12:47:12;7.30;99.90
4356;DHT22;64374;51.482;7.408;2022-12-04T12:49:49;7.40;99.90
4356;DHT22;64374;51.482;7.408;2022-12-04T12:52:28;7.50;99.90
4356;DHT22;64374;51.482;7.408;2022-12-04T12:55:01;7.50;99.90
4356;DHT22;64374;51.482;7.408;2022-12-04T12:57:33;7.60;99.90
4356;DHT22;64374;51.482;7.408;2022-12-04T13:00:06;7.20;99.90
4356;DHT22;64374;51.482;7.408;2022-12-04T13:02:43;7.10;99.90
4356;DHT22;64374;51.482;7.408;2022-12-04T13:05:19;7.30;99.90
4356;DHT22;64374;51.482;7.408;2022-12-04T13:07:57;7.40;99.90
4356;DHT22;64374;51.482;7.408;2022-12-04T13:10:32;7.50;99.90
4356;DHT22;64374;51.482;7.408;2022-12-04T13:13:05;7.40;99.90
4356;DHT22;64374;51.482;7.408;2022-12-04T13:15:38;7.60;99.90
4356;DHT22;64374;51.482;7.408;2022-12-04T13:20:46;7.80;99.90
4356;DHT22;64374;51.482;7.408;2022-12-04T13:23:40;7.80;99.90
4356;DHT22;64374;51.482;7.408;2022-12-04T13:26:19;8.10;99.90
4356;DHT22;64374;51.482;7.408;2022-12-04T13:28:56;8.00;99.90
4356;DHT22;64374;51.482;7.408;2022-12-04T13:31:34;8.10;99.90
4356;DHT22;64374;51.482;7.408;2022-12-04T13:37:17;8.20;99.90
4356;DHT22;64374;51.482;7.408;2022-12-04T13:40:24;8.10;99.90
4356;DHT22;64374;51.482;7.408;2022-12-04T13:43:17;7.90;99.90
4356;DHT22;64374;51.482;7.408;2022-12-04T13:45:48;8.10;99.90
4356;DHT22;64374;51.482;7.408;2022-12-04T13:48:34;8.10;99.90
4356;DHT22;64374;51.482;7.408;2022-12-04T13:51:07;8.00;99.90
4356;DHT22;64374;51.482;7.408;2022-12-04T13:53:37;8.00;99.90
4356;DHT22;64374;51.482;7.408;2022-12-04T13:56:24;8.10;99.90
4356;DHT22;64374;51.482;7.408;2022-12-04T13:58:59;8.10;99.90
4356;DHT22;64374;51.482;7.408;2022-12-04T14:01:33;8.00;99.90
4356;DHT22;64374;51.482;7.408;2022-12-04T14:04:03;8.10;99.90
4356;DHT22;64374;51.482;7.408;2022-12-04T14:06:36;8.20;99.90
4356;DHT22;64374;51.482;7.408;2022-12-04T14:09:08;8.20;99.90
4356;DHT22;64374;51.482;7.408;2022-12-04T14:11:49;8.10;99.90
4356;DHT22;64374;51.482;7.408;2022-12-04T14:14:26;8.20;99.90
4356;DHT22;64374;51.482;7.408;2022-12-04T14:16:58;8.20;99.90
4356;DHT22;64374;51.482;7.408;2022-12-04T14:19:30;8.10;99.90
4356;DHT22;64374;51.482;7.408;2022-12-04T14:21:59;8.10;99.90
4356;DHT22;64374;51.482;7.408;2022-12-04T14:24:33;8.10;99.90
4356;DHT22;64374;51.482;7.408;2022-12-04T14:27:32;8.00;99.90
4356;DHT22;64374;51.482;7.408;2022-12-04T14:30:15;8.00;99.90
4356;DHT22;64374;51.482;7.408;2022-12-04T14:32:46;7.90;99.90
4356;DHT22;64374;51.482;7.408;2022-12-04T14:35:16;7.60;99.90
4356;DHT22;64374;51.482;7.408;2022-12-04T14:37:51;7.40;99.90
4356;DHT22;64374;51.482;7.408;2022-12-04T14:40:24;7.60;99.90
4356;DHT22;64374;51.482;7.408;2022-12-04T14:43:00;7.60;99.90
4356;DHT22;64374;51.482;7.408;2022-12-04T14:45:35;7.70;99.90
4356;DHT22;64374;51.482;7.408;2022-12-04T14:48:20;7.80;99.90
4356;DHT22;64374;51.482;7.408;2022-12-04T14:50:58;7.70;99.90
4356;DHT22;64374;51.482;7.408;2022-12-04T14:53:35;7.80;99.90
4356;DHT22;64374;51.482;7.408;2022-12-04T14:56:18;7.80;99.90
4356;DHT22;64374;51.482;7.408;2022-12-04T14:58:50;7.90;99.90
4356;DHT22;64374;51.482;7.408;2022-12-04T15:01:21;7.90;99.90
4356;DHT22;64374;51.482;7.408;2022-12-04T15:04:11;7.80;99.90
4356;DHT22;64374;51.482;7.408;2022-12-04T15:06:41;7.70;99.90
4356;DHT22;64374;51.482;7.408;2022-12-04T15:09:16;7.90;99.90
4356;DHT22;64374;51.482;7.408;2022-12-04T15:12:15;7.80;99.90
4356;DHT22;64374;51.482;7.408;2022-12-04T15:15:21;7.60;99.90
4356;DHT22;64374;51.482;7.408;2022-12-04T15:17:56;7.90;99.90
4356;DHT22;64374;51.482;7.408;2022-12-04T15:20:25;7.70;99.90
4356;DHT22;64374;51.482;7.408;2022-12-04T15:22:58;7.80;99.90
4356;DHT22;64374;51.482;7.408;2022-12-04T15:25:32;7.90;99.90
4356;DHT22;64374;51.482;7.408;2022-12-04T15:28:11;7.90;99.90
4356;DHT22;64374;51.482;7.408;2022-12-04T15:30:45;8.10;99.90
4356;DHT22;64374;51.482;7.408;2022-12-04T15:33:17;7.80;99.90
4356;DHT22;64374;51.482;7.408;2022-12-04T15:35:51;7.70;99.90
4356;DHT22;64374;51.482;7.408;2022-12-04T15:38:25;7.60;99.90
4356;DHT22;64374;51.482;7.408;2022-12-04T15:40:56;7.70;99.90
4356;DHT22;64374;51.482;7.408;2022-12-04T15:43:29;7.60;99.90
4356;DHT22;64374;51.482;7.408;2022-12-04T15:45:59;7.80;99.90
4356;DHT22;64374;51.482;7.408;2022-12-04T15:48:29;7.80;99.90
4356;DHT22;64374;51.482;7.408;2022-12-04T15:51:00;7.90;99.90
4356;DHT22;64374;51.482;7.408;2022-12-04T15:53:31;7.70;99.90
4356;DHT22;64374;51.482;7.408;2022-12-04T15:56:02;7.70;99.90
4356;DHT22;64374;51.482;7.408;2022-12-04T15:58:32;7.80;99.90
4356;DHT22;64374;51.482;7.408;2022-12-04T16:01:03;7.80;99.90
4356;DHT22;64374;51.482;7.408;2022-12-04T16:03:37;7.80;99.90
4356;DHT22;64374;51.482;7.408;2022-12-04T16:06:15;8.00;99.90
4356;DHT22;64374;51.482;7.408;2022-12-04T16:08:48;8.00;99.90
4356;DHT22;64374;51.482;7.408;2022-12-04T16:11:28;8.00;99.90
4356;DHT22;64374;51.482;7.408;2022-12-04T16:14:16;8.00;99.90
4356;DHT22;64374;51.482;7.408;2022-12-04T16:16:47;8.10;99.90
4356;DHT22;64374;51.482;7.408;2022-12-04T16:19:27;8.30;99.90
4356;DHT22;64374;51.482;7.408;2022-12-04T16:22:28;7.80;99.90
4356;DHT22;64374;51.482;7.408;2022-12-04T16:24:57;7.60;99.90
4356;DHT22;64374;51.482;7.408;2022-12-04T16:27:26;7.20;99.90
4356;DHT22;64374;51.482;7.408;2022-12-04T16:29:55;7.40;99.90
4356;DHT22;64374;51.482;7.408;2022-12-04T16:32:28;7.50;99.90
4356;DHT22;64374;51.482;7.408;2022-12-04T16:34:58;7.70;99.90
4356;DHT22;64374;51.482;7.408;2022-12-04T16:37:27;7.80;99.90
4356;DHT22;64374;51.482;7.408;2022-12-04T16:39:55;7.60;99.90
4356;DHT22;64374;51.482;7.408;2022-12-04T16:42:25;7.60;99.90
4356;DHT22;64374;51.482;7.408;2022-12-04T16:44:57;7.70;99.90
4356;DHT22;64374;51.482;7.408;2022-12-04T16:47:27;7.90;99.90
4356;DHT22;64374;51.482;7.408;2022-12-04T16:49:56;8.00;99.90
4356;DHT22;64374;51.482;7.408;2022-12-04T16:52:24;7.90;99.90
4356;DHT22;64374;51.482;7.408;2022-12-04T16:54:53;7.80;99.90